Time,TemperatureF,DewpointF,PressureIn,WindDirection,WindDirectionDegrees,WindSpeedMPH,WindSpeedGustMPH,Humidity,HourlyPrecipIn,Conditions,Clouds,dailyrainin,SolarRadiationWatts/m^2,SoftwareType,DateUTC
2013-01-24 00:03:00,46.0,28.0,-100.00,SW,226,5.0,10.0,50,0.00,,,0.00,0.000000,,2013-01-24 05:03:00,
2013-01-24 00:12:00,46.0,28.0,-100.00,SW,226,5.0,10.0,50,0.00,,,0.00,0.000000,,2013-01-24 05:12:00,
2013-01-24 00:22:00,46.0,28.0,-100.00,SW,226,5.0,10.0,50,0.00,,,0.00,0.000000,,2013-01-24 05:22:00,
2013-01-24 00:32:00,45.0,33.0,-100.00,North,8,3.0,11.0,63,0.01,,,0.01,0.000000,,2013-01-24 05:32:00,
2013-01-24 00:53:00,45.0,33.0,-100.00,North,8,3.0,11.0,63,0.01,,,0.01,0.000000,,2013-01-24 05:53:00,
2013-01-24 01:02:00,45.0,33.0,-100.00,North,8,3.0,11.0,63,0.01,,,0.01,0.000000,,2013-01-24 06:02:00,
2013-01-24 01:12:00,45.0,33.0,-100.00,North,8,3.0,11.0,63,0.01,,,0.01,0.000000,,2013-01-24 06:12:00,
2013-01-24 01:22:00,45.0,33.0,-100.00,North,8,3.0,11.0,63,0.01,,,0.01,0.000000,,2013-01-24 06:22:00,
2013-01-24 01:32:00,47.0,27.0,-100.00,South,180,7.0,15.0,46,0.00,,,0.01,0.000000,,2013-01-24 06:32:00,
2013-01-24 01:52:00,47.0,27.0,-100.00,South,180,7.0,15.0,46,0.00,,,0.01,0.000000,,2013-01-24 06:52:00,
2013-01-24 02:02:00,47.0,27.0,-100.00,South,180,7.0,15.0,46,0.00,,,0.01,0.000000,,2013-01-24 07:02:00,
2013-01-24 02:12:00,47.0,27.0,-100.00,South,180,7.0,15.0,46,0.00,,,0.01,0.000000,,2013-01-24 07:12:00,
2013-01-24 02:22:00,47.0,27.0,-100.00,South,180,7.0,15.0,46,0.00,,,0.01,0.000000,,2013-01-24 07:22:00,
2013-01-24 02:32:00,43.0,33.0,-100.00,West,278,3.0,13.0,67,0.01,,,0.02,0.000000,,2013-01-24 07:32:00,
2013-01-24 02:53:00,43.0,33.0,-100.00,West,278,3.0,13.0,67,0.01,,,0.02,0.000000,,2013-01-24 07:53:00,
2013-01-24 03:02:00,43.0,33.0,-100.00,West,278,3.0,13.0,67,0.01,,,0.02,0.000000,,2013-01-24 08:02:00,
2013-01-24 03:12:00,43.0,33.0,-100.00,West,278,3.0,13.0,67,0.01,,,0.02,0.000000,,2013-01-24 08:12:00,
2013-01-24 03:22:00,43.0,33.0,-100.00,West,278,3.0,13.0,67,0.01,,,0.02,0.000000,,2013-01-24 08:22:00,
2013-01-24 03:32:00,42.0,33.0,-100.00,SSW,204,0.0,10.0,70,0.00,,,0.02,0.000000,,2013-01-24 08:32:00,
2013-01-24 03:53:00,42.0,33.0,-100.00,SSW,204,0.0,10.0,70,0.00,,,0.02,0.000000,,2013-01-24 08:53:00,
2013-01-24 04:02:00,42.0,33.0,-100.00,SSW,204,0.0,10.0,70,0.00,,,0.02,0.000000,,2013-01-24 09:02:00,
2013-01-24 04:12:00,42.0,33.0,-100.00,SSW,204,0.0,10.0,70,0.00,,,0.02,0.000000,,2013-01-24 09:12:00,
2013-01-24 04:22:00,42.0,33.0,-100.00,SSW,204,0.0,10.0,70,0.00,,,0.02,0.000000,,2013-01-24 09:22:00,
2013-01-24 04:32:00,46.0,34.0,-100.00,SSW,196,4.0,8.0,62,0.00,,,0.02,0.000000,,2013-01-24 09:32:00,
2013-01-24 04:53:00,46.0,34.0,-100.00,SSW,196,4.0,8.0,62,0.00,,,0.02,0.000000,,2013-01-24 09:53:00,
2013-01-24 05:02:00,46.0,34.0,-100.00,SSW,196,4.0,8.0,62,0.00,,,0.02,0.000000,,2013-01-24 10:02:00,
2013-01-24 05:12:00,46.0,34.0,-100.00,SSW,196,4.0,8.0,62,0.00,,,0.02,0.000000,,2013-01-24 10:12:00,
2013-01-24 05:22:00,46.0,34.0,-100.00,SSW,196,4.0,8.0,62,0.00,,,0.02,0.000000,,2013-01-24 10:22:00,
2013-01-24 05:32:00,46.0,33.0,-100.00,South,190,4.0,12.0,60,0.00,,,-99.99,0.000000,,2013-01-24 10:32:00,
2013-01-24 05:53:00,46.0,33.0,-100.00,South,190,4.0,12.0,60,0.00,,,-99.99,0.000000,,2013-01-24 10:53:00,
2013-01-24 06:02:00,46.0,33.0,-100.00,South,190,4.0,12.0,60,0.00,,,-99.99,0.000000,,2013-01-24 11:02:00,
2013-01-24 06:12:00,46.0,33.0,-100.00,South,190,4.0,12.0,60,0.00,,,-99.99,0.000000,,2013-01-24 11:12:00,
2013-01-24 06:22:00,46.0,33.0,-100.00,South,190,4.0,12.0,60,0.00,,,-99.99,0.000000,,2013-01-24 11:22:00,
2013-01-24 06:32:00,42.0,36.0,-100.00,North,354,0.0,12.0,80,0.04,,,0.06,0.000000,,2013-01-24 11:32:00,
2013-01-24 06:53:00,42.0,36.0,-100.00,North,354,0.0,12.0,80,0.04,,,0.06,0.000000,,2013-01-24 11:53:00,
2013-01-24 07:03:00,42.0,36.0,-100.00,North,354,0.0,12.0,80,0.04,,,0.06,0.000000,,2013-01-24 12:03:00,
2013-01-24 07:12:00,42.0,36.0,-100.00,North,354,0.0,12.0,80,0.04,,,0.06,0.000000,,2013-01-24 12:12:00,
2013-01-24 07:22:00,42.0,36.0,-100.00,North,354,0.0,12.0,80,0.04,,,0.06,0.000000,,2013-01-24 12:22:00,
2013-01-24 07:32:00,42.0,37.0,-100.00,NNW,335,0.0,5.0,83,0.03,,,0.09,0.000000,,2013-01-24 12:32:00,
2013-01-24 07:53:00,42.0,37.0,-100.00,NNW,335,0.0,5.0,83,0.03,,,0.09,0.000000,,2013-01-24 12:53:00,
2013-01-24 08:02:00,42.0,37.0,-100.00,NNW,335,0.0,5.0,83,0.03,,,0.09,0.000000,,2013-01-24 13:02:00,
2013-01-24 08:12:00,42.0,37.0,-100.00,NNW,335,0.0,5.0,83,0.03,,,0.09,0.000000,,2013-01-24 13:12:00,
2013-01-24 08:22:00,42.0,37.0,-100.00,NNW,335,0.0,5.0,83,0.03,,,0.09,0.000000,,2013-01-24 13:22:00,
2013-01-24 08:32:00,41.0,38.0,-100.00,NNW,336,1.0,5.0,88,0.02,,,0.11,0.000000,,2013-01-24 13:32:00,
2013-01-24 08:53:00,41.0,38.0,-100.00,NNW,336,1.0,5.0,88,0.02,,,0.11,0.000000,,2013-01-24 13:53:00,
2013-01-24 09:02:00,41.0,38.0,-100.00,NNW,336,1.0,5.0,88,0.02,,,0.11,0.000000,,2013-01-24 14:02:00,
2013-01-24 09:12:00,41.0,38.0,-100.00,NNW,336,1.0,5.0,88,0.02,,,0.11,0.000000,,2013-01-24 14:12:00,
2013-01-24 09:22:00,41.0,38.0,-100.00,NNW,336,1.0,5.0,88,0.02,,,0.11,0.000000,,2013-01-24 14:22:00,
2013-01-24 09:32:00,41.0,39.0,-100.00,NNW,345,0.0,6.0,92,0.04,,,-99.99,0.000000,,2013-01-24 14:32:00,
2013-01-24 09:54:00,41.0,39.0,-100.00,NNW,345,0.0,6.0,92,0.04,,,-99.99,0.000000,,2013-01-24 14:54:00,
2013-01-24 10:03:00,41.0,39.0,-100.00,NNW,345,0.0,6.0,92,0.04,,,-99.99,0.000000,,2013-01-24 15:03:00,
2013-01-24 10:12:00,41.0,39.0,-100.00,NNW,345,0.0,6.0,92,0.04,,,-99.99,0.000000,,2013-01-24 15:12:00,
2013-01-24 10:22:00,41.0,39.0,-100.00,NNW,345,0.0,6.0,92,0.04,,,-99.99,0.000000,,2013-01-24 15:22:00,
2013-01-24 10:32:00,40.0,39.0,-100.00,West,259,0.0,3.0,95,0.03,,,0.18,3.000000,,2013-01-24 15:32:00,
2013-01-24 10:53:00,40.0,39.0,-100.00,West,259,0.0,3.0,95,0.03,,,0.18,3.000000,,2013-01-24 15:53:00,
2013-01-24 11:03:00,40.0,39.0,-100.00,West,259,0.0,3.0,95,0.03,,,0.18,3.000000,,2013-01-24 16:03:00,
2013-01-24 11:12:00,40.0,39.0,-100.00,West,259,0.0,3.0,95,0.03,,,0.18,3.000000,,2013-01-24 16:12:00,
2013-01-24 11:22:00,40.0,39.0,-100.00,West,259,0.0,3.0,95,0.03,,,0.18,3.000000,,2013-01-24 16:22:00,
2013-01-24 12:02:00,40.0,39.0,-100.00,SSW,202,0.0,4.0,95,0.03,,,0.21,31.000000,,2013-01-24 17:02:00,
2013-01-24 12:11:00,40.0,39.0,-100.00,SSW,202,0.0,4.0,95,0.03,,,0.21,31.000000,,2013-01-24 17:11:00,
2013-01-24 12:21:00,40.0,39.0,-100.00,SSW,202,0.0,4.0,95,0.03,,,0.21,31.000000,,2013-01-24 17:21:00,
2013-01-24 12:31:00,40.0,39.0,-100.00,SSW,202,0.0,4.0,95,0.03,,,0.21,31.000000,,2013-01-24 17:31:00,
2013-01-24 12:32:00,41.0,40.0,-100.00,SSE,154,0.0,6.0,95,0.02,,,0.23,99.000000,,2013-01-24 17:32:00,
2013-01-24 12:52:00,41.0,40.0,-100.00,SSE,154,0.0,6.0,95,0.02,,,0.23,99.000000,,2013-01-24 17:52:00,
2013-01-24 13:02:00,41.0,40.0,-100.00,SSE,154,0.0,6.0,95,0.02,,,0.23,99.000000,,2013-01-24 18:02:00,
2013-01-24 13:12:00,41.0,40.0,-100.00,SSE,154,0.0,6.0,95,0.02,,,0.23,99.000000,,2013-01-24 18:12:00,
2013-01-24 13:22:00,41.0,40.0,-100.00,SSE,154,0.0,6.0,95,0.02,,,0.23,99.000000,,2013-01-24 18:22:00,
2013-01-24 13:32:00,43.0,41.0,-100.00,SE,140,1.0,4.0,94,0.05,,,0.28,80.000000,,2013-01-24 18:32:00,
2013-01-24 13:53:00,43.0,41.0,-100.00,SE,140,1.0,4.0,94,0.05,,,0.28,80.000000,,2013-01-24 18:53:00,
2013-01-24 14:01:00,43.0,41.0,-100.00,SE,140,1.0,4.0,94,0.05,,,0.28,80.000000,,2013-01-24 19:01:00,
2013-01-24 14:12:00,43.0,41.0,-100.00,SE,140,1.0,4.0,94,0.05,,,0.28,80.000000,,2013-01-24 19:12:00,
2013-01-24 14:21:00,43.0,41.0,-100.00,SE,140,1.0,4.0,94,0.05,,,0.28,80.000000,,2013-01-24 19:21:00,
2013-01-24 14:32:00,42.0,40.0,-100.00,East,100,0.0,6.0,94,0.04,,,0.32,102.000000,,2013-01-24 19:32:00,
2013-01-24 14:52:00,42.0,40.0,-100.00,East,100,0.0,6.0,94,0.04,,,0.32,102.000000,,2013-01-24 19:52:00,
2013-01-24 15:02:00,42.0,40.0,-100.00,East,100,0.0,6.0,94,0.04,,,0.32,102.000000,,2013-01-24 20:02:00,
2013-01-24 15:11:00,42.0,40.0,-100.00,East,100,0.0,6.0,94,0.04,,,0.32,102.000000,,2013-01-24 20:11:00,
2013-01-24 15:22:00,42.0,40.0,-100.00,East,100,0.0,6.0,94,0.04,,,0.32,102.000000,,2013-01-24 20:22:00,
2013-01-24 15:32:00,43.0,41.0,-100.00,SSE,149,5.0,8.0,94,0.00,,,0.32,192.000000,,2013-01-24 20:32:00,
2013-01-24 15:52:00,43.0,41.0,-100.00,SSE,149,5.0,8.0,94,0.00,,,0.32,192.000000,,2013-01-24 20:52:00,
2013-01-24 16:02:00,43.0,41.0,-100.00,SSE,149,5.0,8.0,94,0.00,,,0.32,192.000000,,2013-01-24 21:02:00,
2013-01-24 16:12:00,43.0,41.0,-100.00,SSE,149,5.0,8.0,94,0.00,,,0.32,192.000000,,2013-01-24 21:12:00,
2013-01-24 16:22:00,43.0,41.0,-100.00,SSE,149,5.0,8.0,94,0.00,,,0.32,192.000000,,2013-01-24 21:22:00,
2013-01-24 16:32:00,45.0,44.0,-100.00,East,99,1.0,6.0,95,0.00,,,0.32,112.000000,,2013-01-24 21:32:00,
2013-01-24 16:53:00,45.0,44.0,-100.00,East,99,1.0,6.0,95,0.00,,,0.32,112.000000,,2013-01-24 21:53:00,
2013-01-24 17:02:00,45.0,44.0,-100.00,East,99,1.0,6.0,95,0.00,,,0.32,112.000000,,2013-01-24 22:02:00,
2013-01-24 17:12:00,45.0,44.0,-100.00,East,99,1.0,6.0,95,0.00,,,0.32,112.000000,,2013-01-24 22:12:00,
2013-01-24 17:22:00,45.0,44.0,-100.00,East,99,1.0,6.0,95,0.00,,,0.32,112.000000,,2013-01-24 22:22:00,
2013-01-24 17:32:00,42.0,41.0,-100.00,SSE,156,4.0,6.0,96,0.00,,,0.32,103.000000,,2013-01-24 22:32:00,
2013-01-24 17:53:00,42.0,41.0,-100.00,SSE,156,4.0,6.0,96,0.00,,,0.32,103.000000,,2013-01-24 22:53:00,
2013-01-24 18:02:00,42.0,41.0,-100.00,SSE,156,4.0,6.0,96,0.00,,,0.32,103.000000,,2013-01-24 23:02:00,
2013-01-24 18:11:00,42.0,41.0,-100.00,SSE,156,4.0,6.0,96,0.00,,,0.32,103.000000,,2013-01-24 23:11:00,
2013-01-24 18:21:00,42.0,41.0,-100.00,SSE,156,4.0,6.0,96,0.00,,,0.32,103.000000,,2013-01-24 23:21:00,
2013-01-24 18:32:00,43.0,42.0,-100.00,SSE,150,1.0,6.0,96,0.00,,,0.32,61.000000,,2013-01-24 23:32:00,
2013-01-24 18:52:00,43.0,42.0,-100.00,SSE,150,1.0,6.0,96,0.00,,,0.32,61.000000,,2013-01-24 23:52:00,
2013-01-24 19:02:00,43.0,42.0,-100.00,SSE,150,1.0,6.0,96,0.00,,,0.32,61.000000,,2013-01-25 00:02:00,
2013-01-24 19:12:00,43.0,42.0,-100.00,SSE,150,1.0,6.0,96,0.00,,,0.32,61.000000,,2013-01-25 00:12:00,
2013-01-24 19:22:00,43.0,42.0,-100.00,SSE,150,1.0,6.0,96,0.00,,,0.32,61.000000,,2013-01-25 00:22:00,
2013-01-24 19:52:00,43.0,42.0,-100.00,SE,135,0.0,3.0,96,0.00,,,0.32,29.000000,,2013-01-25 00:52:00,
2013-01-24 20:01:00,43.0,42.0,-100.00,SE,135,0.0,3.0,96,0.00,,,0.32,29.000000,,2013-01-25 01:01:00,
2013-01-24 20:12:00,43.0,42.0,-100.00,SE,135,0.0,3.0,96,0.00,,,0.32,29.000000,,2013-01-25 01:12:00,
2013-01-24 20:21:00,43.0,42.0,-100.00,SE,135,0.0,3.0,96,0.00,,,0.32,29.000000,,2013-01-25 01:21:00,
2013-01-24 20:31:00,43.0,42.0,-100.00,SE,135,0.0,3.0,96,0.00,,,0.32,29.000000,,2013-01-25 01:31:00,
2013-01-24 20:52:00,41.0,40.0,-100.00,South,177,0.0,3.0,96,0.00,,,0.32,2.000000,,2013-01-25 01:52:00,
2013-01-24 21:02:00,41.0,40.0,-100.00,South,177,0.0,3.0,96,0.00,,,0.32,2.000000,,2013-01-25 02:02:00,
2013-01-24 21:11:00,41.0,40.0,-100.00,South,177,0.0,3.0,96,0.00,,,0.32,2.000000,,2013-01-25 02:11:00,
2013-01-24 21:22:00,41.0,40.0,-100.00,South,177,0.0,3.0,96,0.00,,,0.32,2.000000,,2013-01-25 02:22:00,
2013-01-24 21:31:00,41.0,40.0,-100.00,South,177,0.0,3.0,96,0.00,,,0.32,2.000000,,2013-01-25 02:31:00,
2013-01-24 21:32:00,41.0,40.0,-100.00,NE,56,0.0,3.0,97,0.00,,,0.32,0.000000,,2013-01-25 02:32:00,
2013-01-24 21:52:00,41.0,40.0,-100.00,NE,56,0.0,3.0,97,0.00,,,0.32,0.000000,,2013-01-25 02:52:00,
2013-01-24 22:02:00,41.0,40.0,-100.00,NE,56,0.0,3.0,97,0.00,,,0.32,0.000000,,2013-01-25 03:02:00,
2013-01-24 22:12:00,41.0,40.0,-100.00,NE,56,0.0,3.0,97,0.00,,,0.32,0.000000,,2013-01-25 03:12:00,
2013-01-24 22:21:00,41.0,40.0,-100.00,NE,56,0.0,3.0,97,0.00,,,0.32,0.000000,,2013-01-25 03:21:00,
2013-01-24 22:52:00,42.0,41.0,-100.00,NW,323,0.0,0.0,97,0.00,,,0.32,0.000000,,2013-01-25 03:52:00,
2013-01-24 23:02:00,42.0,41.0,-100.00,NW,323,0.0,0.0,97,0.00,,,0.32,0.000000,,2013-01-25 04:02:00,
2013-01-24 23:11:00,42.0,41.0,-100.00,NW,323,0.0,0.0,97,0.00,,,0.32,0.000000,,2013-01-25 04:11:00,
2013-01-24 23:22:00,42.0,41.0,-100.00,NW,323,0.0,0.0,97,0.00,,,0.32,0.000000,,2013-01-25 04:22:00,
2013-01-24 23:31:00,42.0,41.0,-100.00,NW,323,0.0,0.0,97,0.00,,,0.32,0.000000,,2013-01-25 04:31:00,
2013-01-24 23:32:00,41.0,40.0,-100.00,NW,320,0.0,4.0,97,0.01,,,0.33,0.000000,,2013-01-25 04:32:00,
2013-01-24 23:52:00,41.0,40.0,-100.00,NW,320,0.0,4.0,97,0.01,,,0.33,0.000000,,2013-01-25 04:52:00,